Time,TemperatureF,DewpointF,PressureIn,WindDirection,WindDirectionDegrees,WindSpeedMPH,WindSpeedGustMPH,Humidity,HourlyPrecipIn,Conditions,Clouds,dailyrainin,SoftwareType,DateUTC
2013-11-05 00:06:00,34.8,20.0,30.66,SE,136,2.0,2.0,55,0.00,,,0.00,weatherlink.com 1.10,2013-11-05 05:06:00,
2013-11-05 00:21:00,34.0,20.0,30.66,SE,136,0.0,0.0,57,0.00,,,0.00,weatherlink.com 1.10,2013-11-05 05:21:00,
2013-11-05 00:36:00,33.0,20.0,30.67,SE,136,0.0,0.0,58,0.00,,,0.00,weatherlink.com 1.10,2013-11-05 05:36:00,
2013-11-05 00:51:00,32.3,19.0,30.66,SE,136,0.0,0.0,59,0.00,,,0.00,weatherlink.com 1.10,2013-11-05 05:51:00,
2013-11-05 01:06:00,32.1,19.0,30.66,SE,136,1.0,2.0,58,0.00,,,0.00,weatherlink.com 1.10,2013-11-05 06:06:00,
2013-11-05 01:21:00,32.1,19.0,30.66,SE,136,0.0,1.0,59,0.00,,,0.00,weatherlink.com 1.10,2013-11-05 06:21:00,
2013-11-05 01:36:00,32.0,18.0,30.65,SE,136,0.0,0.0,57,0.00,,,0.00,weatherlink.com 1.10,2013-11-05 06:36:00,
2013-11-05 01:51:00,32.1,19.0,30.65,SE,136,0.0,0.0,58,0.00,,,0.00,weatherlink.com 1.10,2013-11-05 06:51:00,
2013-11-05 02:06:00,32.5,19.0,30.63,SE,136,0.0,1.0,58,0.00,,,0.00,weatherlink.com 1.10,2013-11-05 07:06:00,
2013-11-05 02:21:00,32.8,21.0,30.63,SSW,205,1.0,4.0,62,0.00,,,0.00,weatherlink.com 1.10,2013-11-05 07:21:00,
2013-11-05 02:36:00,33.5,22.0,30.62,ESE,105,0.0,2.0,62,0.00,,,0.00,weatherlink.com 1.10,2013-11-05 07:36:00,
2013-11-05 02:51:00,34.1,21.0,30.62,ESE,121,0.0,3.0,59,0.00,,,0.00,weatherlink.com 1.10,2013-11-05 07:51:00,
2013-11-05 03:06:00,34.4,21.0,30.63,ESE,112,0.0,5.0,59,0.00,,,0.00,weatherlink.com 1.10,2013-11-05 08:06:00,
2013-11-05 03:21:00,34.6,21.0,30.62,SSE,153,1.0,4.0,59,0.00,,,0.00,weatherlink.com 1.10,2013-11-05 08:21:00,
2013-11-05 03:36:00,34.8,23.0,30.63,SSE,154,0.0,3.0,62,0.00,,,0.00,weatherlink.com 1.10,2013-11-05 08:36:00,
2013-11-05 03:51:00,34.7,22.0,30.64,SSE,154,0.0,0.0,61,0.00,,,0.00,weatherlink.com 1.10,2013-11-05 08:51:00,
2013-11-05 04:06:00,34.2,22.0,30.63,SSE,154,0.0,0.0,61,0.00,,,0.00,weatherlink.com 1.10,2013-11-05 09:06:00,
2013-11-05 04:21:00,33.7,21.0,30.64,SSE,154,0.0,0.0,61,0.00,,,0.00,weatherlink.com 1.10,2013-11-05 09:21:00,
2013-11-05 04:36:00,33.2,21.0,30.65,SSE,154,0.0,0.0,61,0.00,,,0.00,weatherlink.com 1.10,2013-11-05 09:36:00,
2013-11-05 04:51:00,32.7,21.0,30.65,SSE,154,0.0,0.0,62,0.00,,,0.00,weatherlink.com 1.10,2013-11-05 09:51:00,
2013-11-05 05:06:00,32.3,21.0,30.65,SSE,154,0.0,0.0,63,0.00,,,0.00,weatherlink.com 1.10,2013-11-05 10:06:00,
2013-11-05 05:21:00,31.6,22.0,30.64,SSE,154,0.0,2.0,67,0.00,,,0.00,weatherlink.com 1.10,2013-11-05 10:21:00,
2013-11-05 05:36:00,31.0,23.0,30.64,SSE,153,0.0,1.0,71,0.00,,,0.00,weatherlink.com 1.10,2013-11-05 10:36:00,
2013-11-05 05:51:00,30.9,24.0,30.64,SSE,153,0.0,0.0,74,0.00,,,0.00,weatherlink.com 1.10,2013-11-05 10:51:00,
2013-11-05 06:06:00,30.8,23.0,30.65,SSE,153,0.0,0.0,74,0.00,,,0.00,weatherlink.com 1.10,2013-11-05 11:06:00,
2013-11-05 06:21:00,30.6,23.0,30.64,SSE,153,0.0,0.0,73,0.00,,,0.00,weatherlink.com 1.10,2013-11-05 11:21:00,
2013-11-05 06:36:00,30.8,24.0,30.64,SSE,153,1.0,2.0,76,0.00,,,0.00,weatherlink.com 1.10,2013-11-05 11:36:00,
2013-11-05 06:51:00,31.1,24.0,30.65,SSE,153,0.0,0.0,76,0.00,,,0.00,weatherlink.com 1.10,2013-11-05 11:51:00,
2013-11-05 07:06:00,31.4,25.0,30.64,SSE,153,0.0,0.0,76,0.00,,,0.00,weatherlink.com 1.10,2013-11-05 12:06:00,
2013-11-05 07:21:00,31.7,25.0,30.64,SSE,153,0.0,0.0,76,0.00,,,0.00,weatherlink.com 1.10,2013-11-05 12:21:00,
2013-11-05 07:36:00,31.9,25.0,30.65,SSE,153,0.0,0.0,76,0.00,,,0.00,weatherlink.com 1.10,2013-11-05 12:36:00,
2013-11-05 07:51:00,32.4,25.0,30.65,SSE,153,0.0,1.0,73,0.00,,,0.00,weatherlink.com 1.10,2013-11-05 12:51:00,
2013-11-05 08:06:00,33.2,25.0,30.66,SSE,153,0.0,0.0,73,0.00,,,0.00,weatherlink.com 1.10,2013-11-05 13:06:00,
2013-11-05 08:21:00,35.0,26.0,30.66,WNW,283,0.0,2.0,70,0.00,,,0.00,weatherlink.com 1.10,2013-11-05 13:21:00,
2013-11-05 08:36:00,36.4,27.0,30.65,NNE,17,2.0,3.0,69,0.00,,,0.00,weatherlink.com 1.10,2013-11-05 13:36:00,
2013-11-05 08:51:00,38.0,28.0,30.65,NNE,30,0.0,3.0,68,0.00,,,0.00,weatherlink.com 1.10,2013-11-05 13:51:00,
2013-11-05 09:06:00,39.7,30.0,30.65,SSW,198,3.0,9.0,68,0.00,,,0.00,weatherlink.com 1.10,2013-11-05 14:06:00,
2013-11-05 09:21:00,42.0,31.0,30.65,SSW,207,6.0,10.0,66,0.00,,,0.00,weatherlink.com 1.10,2013-11-05 14:21:00,
2013-11-05 09:37:00,43.2,32.0,30.64,SW,235,8.0,10.0,65,0.00,,,0.00,weatherlink.com 1.10,2013-11-05 14:37:00,
2013-11-05 09:52:00,43.5,32.0,30.64,South,169,6.0,9.0,65,0.00,,,0.00,weatherlink.com 1.10,2013-11-05 14:52:00,
2013-11-05 10:07:00,43.7,33.0,30.64,South,170,5.0,11.0,66,0.00,,,0.00,weatherlink.com 1.10,2013-11-05 15:07:00,
2013-11-05 10:22:00,44.6,34.0,30.63,SSW,210,7.0,11.0,66,0.00,,,0.00,weatherlink.com 1.10,2013-11-05 15:22:00,
2013-11-05 10:37:00,46.8,35.0,30.62,SSE,165,7.0,14.0,64,0.00,,,0.00,weatherlink.com 1.10,2013-11-05 15:37:00,
2013-11-05 10:52:00,48.6,36.0,30.62,SW,217,12.0,12.0,62,0.00,,,0.00,weatherlink.com 1.10,2013-11-05 15:52:00,
2013-11-05 11:07:00,49.2,36.0,30.62,WSW,257,5.0,16.0,60,0.00,,,0.00,weatherlink.com 1.10,2013-11-05 16:07:00,
2013-11-05 11:22:00,48.2,36.0,30.62,SW,225,5.0,11.0,62,0.00,,,0.00,weatherlink.com 1.10,2013-11-05 16:22:00,
2013-11-05 11:37:00,48.1,36.0,30.62,WSW,243,5.0,12.0,63,0.00,,,0.00,weatherlink.com 1.10,2013-11-05 16:37:00,
2013-11-05 11:52:00,48.6,36.0,30.61,SW,217,7.0,14.0,62,0.00,,,0.00,weatherlink.com 1.10,2013-11-05 16:52:00,
2013-11-05 12:07:00,49.0,36.0,30.60,SSW,207,6.0,15.0,61,0.00,,,0.00,weatherlink.com 1.10,2013-11-05 17:07:00,
2013-11-05 12:22:00,49.7,36.0,30.59,SW,227,9.0,14.0,60,0.00,,,0.00,weatherlink.com 1.10,2013-11-05 17:22:00,
2013-11-05 12:37:00,50.6,37.0,30.57,SW,236,9.0,13.0,60,0.00,,,0.00,weatherlink.com 1.10,2013-11-05 17:37:00,
2013-11-05 12:52:00,51.3,37.0,30.57,SW,233,5.0,13.0,59,0.00,,,0.00,weatherlink.com 1.10,2013-11-05 17:52:00,
2013-11-05 13:07:00,51.7,37.0,30.56,SSW,208,5.0,15.0,58,0.00,,,0.00,weatherlink.com 1.10,2013-11-05 18:07:00,
2013-11-05 13:22:00,51.4,37.0,30.55,WSW,253,4.0,11.0,58,0.00,,,0.00,weatherlink.com 1.10,2013-11-05 18:22:00,
2013-11-05 13:37:00,51.7,38.0,30.55,West,261,3.0,9.0,59,0.00,,,0.00,weatherlink.com 1.10,2013-11-05 18:37:00,
2013-11-05 13:52:00,52.8,38.0,30.54,West,280,6.0,15.0,57,0.00,,,0.00,weatherlink.com 1.10,2013-11-05 18:52:00,
2013-11-05 14:07:00,52.7,37.0,30.53,SW,226,7.0,7.0,56,0.00,,,0.00,weatherlink.com 1.10,2013-11-05 19:07:00,
2013-11-05 14:22:00,52.1,37.0,30.52,SW,234,7.0,13.0,56,0.00,,,0.00,weatherlink.com 1.10,2013-11-05 19:22:00,
2013-11-05 14:37:00,52.1,37.0,30.52,SSW,194,7.0,11.0,57,0.00,,,0.00,weatherlink.com 1.10,2013-11-05 19:37:00,
2013-11-05 14:52:00,52.3,37.0,30.52,SW,234,8.0,14.0,57,0.00,,,0.00,weatherlink.com 1.10,2013-11-05 19:52:00,
2013-11-05 15:07:00,52.0,37.0,30.53,West,259,7.0,11.0,57,0.00,,,0.00,weatherlink.com 1.10,2013-11-05 20:07:00,
2013-11-05 15:23:00,50.5,37.0,30.52,SW,229,2.0,8.0,60,0.00,,,0.00,weatherlink.com 1.10,2013-11-05 20:23:00,
2013-11-05 15:38:00,50.4,37.0,30.51,SW,214,8.0,8.0,61,0.00,,,0.00,weatherlink.com 1.10,2013-11-05 20:38:00,
2013-11-05 16:08:00,49.7,37.0,30.51,SSW,198,3.0,7.0,63,0.00,,,0.00,weatherlink.com 1.10,2013-11-05 21:08:00,
2013-11-05 16:23:00,49.2,37.0,30.51,SSW,205,5.0,7.0,64,0.00,,,0.00,weatherlink.com 1.10,2013-11-05 21:23:00,
2013-11-05 16:38:00,48.9,37.0,30.51,SSW,209,2.0,5.0,64,0.00,,,0.00,weatherlink.com 1.10,2013-11-05 21:38:00,
2013-11-05 17:08:00,48.3,37.0,30.52,SW,214,2.0,4.0,66,0.00,,,0.00,weatherlink.com 1.10,2013-11-05 22:08:00,
2013-11-05 17:23:00,48.0,37.0,30.51,SSW,207,4.0,5.0,67,0.00,,,0.00,weatherlink.com 1.10,2013-11-05 22:23:00,
2013-11-05 17:38:00,47.6,38.0,30.51,South,187,4.0,4.0,69,0.00,,,0.00,weatherlink.com 1.10,2013-11-05 22:38:00,
2013-11-05 17:53:00,47.1,38.0,30.52,South,188,4.0,5.0,70,0.00,,,0.00,weatherlink.com 1.10,2013-11-05 22:53:00,
2013-11-05 18:08:00,46.8,38.0,30.52,South,187,3.0,6.0,71,0.00,,,0.00,weatherlink.com 1.10,2013-11-05 23:08:00,
2013-11-05 18:23:00,46.5,38.0,30.52,South,187,4.0,6.0,72,0.00,,,0.00,weatherlink.com 1.10,2013-11-05 23:23:00,
2013-11-05 18:38:00,46.5,38.0,30.53,SSW,201,3.0,7.0,72,0.00,,,0.00,weatherlink.com 1.10,2013-11-05 23:38:00,
2013-11-05 18:53:00,46.5,38.0,30.53,SSW,210,4.0,7.0,72,0.00,,,0.00,weatherlink.com 1.10,2013-11-05 23:53:00,
2013-11-05 19:09:00,46.6,38.0,30.52,SSW,198,4.0,9.0,72,0.00,,,0.00,weatherlink.com 1.10,2013-11-06 00:09:00,
2013-11-05 19:23:00,46.5,38.0,30.53,South,190,5.0,7.0,73,0.00,,,0.00,weatherlink.com 1.10,2013-11-06 00:23:00,
2013-11-05 19:38:00,46.4,38.0,30.52,SSW,202,5.0,7.0,73,0.00,,,0.00,weatherlink.com 1.10,2013-11-06 00:38:00,
2013-11-05 19:53:00,46.2,38.0,30.52,SSW,206,6.0,7.0,74,0.00,,,0.00,weatherlink.com 1.10,2013-11-06 00:53:00,
2013-11-05 20:08:00,46.0,39.0,30.51,SSW,196,7.0,8.0,75,0.00,,,0.00,weatherlink.com 1.10,2013-11-06 01:08:00,
2013-11-05 20:23:00,45.9,38.0,30.52,SSW,196,5.0,7.0,75,0.00,,,0.00,weatherlink.com 1.10,2013-11-06 01:23:00,
2013-11-05 20:38:00,45.8,39.0,30.51,South,189,3.0,6.0,76,0.00,,,0.00,weatherlink.com 1.10,2013-11-06 01:38:00,
2013-11-05 20:53:00,45.6,39.0,30.51,SW,214,2.0,8.0,77,0.00,,,0.00,weatherlink.com 1.10,2013-11-06 01:53:00,
2013-11-05 21:09:00,45.6,39.0,30.51,SW,219,6.0,7.0,78,0.00,,,0.00,weatherlink.com 1.10,2013-11-06 02:09:00,
2013-11-05 21:24:00,45.6,39.0,30.50,South,188,2.0,8.0,78,0.00,,,0.00,weatherlink.com 1.10,2013-11-06 02:24:00,
2013-11-05 21:39:00,45.4,39.0,30.50,South,188,4.0,6.0,79,0.00,,,0.00,weatherlink.com 1.10,2013-11-06 02:39:00,
2013-11-05 21:54:00,45.3,39.0,30.50,SSW,207,3.0,7.0,79,0.00,,,0.00,weatherlink.com 1.10,2013-11-06 02:54:00,
2013-11-05 22:09:00,45.3,40.0,30.51,SSW,211,4.0,7.0,80,0.00,,,0.00,weatherlink.com 1.10,2013-11-06 03:09:00,
2013-11-05 22:39:00,45.1,39.0,30.49,South,185,5.0,6.0,80,0.00,,,0.00,weatherlink.com 1.10,2013-11-06 03:39:00,
2013-11-05 22:54:00,44.9,39.0,30.48,South,178,2.0,5.0,80,0.00,,,0.00,weatherlink.com 1.10,2013-11-06 03:54:00,
2013-11-05 23:09:00,44.6,39.0,30.49,SW,225,0.0,4.0,81,0.00,,,0.00,weatherlink.com 1.10,2013-11-06 04:09:00,
2013-11-05 23:24:00,44.0,39.0,30.49,South,190,4.0,5.0,81,0.00,,,0.00,weatherlink.com 1.10,2013-11-06 04:24:00,
2013-11-05 23:39:00,43.5,39.0,30.48,SSE,159,2.0,5.0,83,0.00,,,0.00,weatherlink.com 1.10,2013-11-06 04:39:00,
2013-11-05 23:54:00,43.4,39.0,30.46,South,173,1.0,6.0,84,0.00,,,0.00,weatherlink.com 1.10,2013-11-06 04:54:00,